Terminal Aerodrome Forecast
Issued by NWS Goodland, KS

Home | Current Version | Previous Version | Text Only | Print | Product List | Glossary On
Versions: 1 2 3 4 5 6 7 8 9 10 11 12 13 14
641
FTUS43 KGLD 080520
TAFGLD
TAF
KGLD 080520Z 0806/0906 32012G22KT P6SM SCT150
     FM081600 35015G25KT P6SM SCT250
     FM090000 31010KT P6SM FEW250=

USA.gov is the U.S. government's official web portal to all federal, state and local government web resources and services.